<?xml version="1.0" encoding="UTF-8" standalone="no" ?>
<gpx xmlns="http://www.topografix.com/GPX/1/1" xmlns:xsi="http://www.w3.org/2001/XMLSchema-instance" xsi:schemaLocation="http://www.topografix.com/GPX/1/1 http://www.topografix.com/GPX/1/1/gpx.xsd" version="1.1" creator="VisuGPX - https://www.visugpx.com">
  <metadata>
    <name>Tour de France 2019</name>
    <desc><![CDATA[4272km en 2 mois en tandem avec notre petit chien dans le panier avant]]></desc>
  </metadata>
  <trk>
    <name><![CDATA[Tracé 20191114-082818]]></name>
    <trkseg>
      <trkpt lat="49.33553" lon="-0.45591">
        <ele>11.886</ele>
        <time>2019-11-14T07:28:27Z</time>
      </trkpt>
      <trkpt lat="49.33501" lon="-0.45536">
        <ele>8.988</ele>
        <time>2019-11-14T07:29:00Z</time>
      </trkpt>
      <trkpt lat="49.33359" lon="-0.45575">
        <ele>8.243</ele>
        <time>2019-11-14T07:29:33Z</time>
      </trkpt>
      <trkpt lat="49.33229" lon="-0.4562">
        <ele>14.393</ele>
        <time>2019-11-14T07:30:06Z</time>
      </trkpt>
      <trkpt lat="49.33115" lon="-0.45582">
        <ele>12.037</ele>
        <time>2019-11-14T07:30:39Z</time>
      </trkpt>
      <trkpt lat="49.33012" lon="-0.4551">
        <ele>12.415</ele>
        <time>2019-11-14T07:31:12.001Z</time>
      </trkpt>
      <trkpt lat="49.33002" lon="-0.45352">
        <ele>15.173</ele>
        <time>2019-11-14T07:31:42.001Z</time>
      </trkpt>
      <trkpt lat="49.32994" lon="-0.45162">
        <ele>11.513</ele>
        <time>2019-11-14T07:32:15.001Z</time>
      </trkpt>
      <trkpt lat="49.33032" lon="-0.44966">
        <ele>9.823</ele>
        <time>2019-11-14T07:32:48.001Z</time>
      </trkpt>
      <trkpt lat="49.3302" lon="-0.44764">
        <ele>6.057</ele>
        <time>2019-11-14T07:33:21.001Z</time>
      </trkpt>
      <trkpt lat="49.33009" lon="-0.44558">
        <ele>5.376</ele>
        <time>2019-11-14T07:33:54.001Z</time>
      </trkpt>
      <trkpt lat="49.32997" lon="-0.44351">
        <ele>7.347</ele>
        <time>2019-11-14T07:34:27.001Z</time>
      </trkpt>
      <trkpt lat="49.32983" lon="-0.44143">
        <ele>10.624</ele>
        <time>2019-11-14T07:34:57.001Z</time>
      </trkpt>
      <trkpt lat="49.3297" lon="-0.43935">
        <ele>11.766</ele>
        <time>2019-11-14T07:35:30.001Z</time>
      </trkpt>
      <trkpt lat="49.32956" lon="-0.43724">
        <ele>9.814</ele>
        <time>2019-11-14T07:36:03.001Z</time>
      </trkpt>
      <trkpt lat="49.32943" lon="-0.43515">
        <ele>6.539</ele>
        <time>2019-11-14T07:36:36.001Z</time>
      </trkpt>
      <trkpt lat="49.32972" lon="-0.43313">
        <ele>8.289</ele>
        <time>2019-11-14T07:37:09.001Z</time>
      </trkpt>
      <trkpt lat="49.33134" lon="-0.43142">
        <ele>6.065</ele>
        <time>2019-11-14T07:37:42.001Z</time>
      </trkpt>
      <trkpt lat="49.33219" lon="-0.42911">
        <ele>4.794</ele>
        <time>2019-11-14T07:38:12.001Z</time>
      </trkpt>
      <trkpt lat="49.33345" lon="-0.42735">
        <ele>3.544</ele>
        <time>2019-11-14T07:38:45.001Z</time>
      </trkpt>
      <trkpt lat="49.33476" lon="-0.42584">
        <ele>4.228</ele>
        <time>2019-11-14T07:39:18.001Z</time>
      </trkpt>
      <trkpt lat="49.33481" lon="-0.42347">
        <ele>3.251</ele>
        <time>2019-11-14T07:39:51.001Z</time>
      </trkpt>
      <trkpt lat="49.3347" lon="-0.42093">
        <ele>2.75</ele>
        <time>2019-11-14T07:40:24.001Z</time>
      </trkpt>
      <trkpt lat="49.33467" lon="-0.41848">
        <ele>7.645</ele>
        <time>2019-11-14T07:40:57.001Z</time>
      </trkpt>
      <trkpt lat="49.33469" lon="-0.41622">
        <ele>4.563</ele>
        <time>2019-11-14T07:41:27.001Z</time>
      </trkpt>
      <trkpt lat="49.33456" lon="-0.4138">
        <ele>1.769</ele>
        <time>2019-11-14T07:42:00Z</time>
      </trkpt>
      <trkpt lat="49.33442" lon="-0.41137">
        <ele>2.126</ele>
        <time>2019-11-14T07:42:33.001Z</time>
      </trkpt>
      <trkpt lat="49.33405" lon="-0.40901">
        <ele>6.477</ele>
        <time>2019-11-14T07:43:06.001Z</time>
      </trkpt>
      <trkpt lat="49.3334" lon="-0.40708">
        <ele>2.75</ele>
        <time>2019-11-14T07:43:39.001Z</time>
      </trkpt>
      <trkpt lat="49.3333" lon="-0.40489">
        <ele>5.619</ele>
        <time>2019-11-14T07:44:12.001Z</time>
      </trkpt>
      <trkpt lat="49.33316" lon="-0.40324">
        <ele>6.468</ele>
        <time>2019-11-14T07:44:42.001Z</time>
      </trkpt>
      <trkpt lat="49.33305" lon="-0.40153">
        <ele>10.524</ele>
        <time>2019-11-14T07:45:15.001Z</time>
      </trkpt>
      <trkpt lat="49.33289" lon="-0.39975">
        <ele>9.557</ele>
        <time>2019-11-14T07:45:48.001Z</time>
      </trkpt>
      <trkpt lat="49.33267" lon="-0.39758">
        <ele>10.483</ele>
        <time>2019-11-14T07:46:21.001Z</time>
      </trkpt>
      <trkpt lat="49.33242" lon="-0.39544">
        <ele>10.817</ele>
        <time>2019-11-14T07:46:54.001Z</time>
      </trkpt>
      <trkpt lat="49.33197" lon="-0.39336">
        <ele>10.256</ele>
        <time>2019-11-14T07:47:27.001Z</time>
      </trkpt>
      <trkpt lat="49.3315" lon="-0.39156">
        <ele>9.905</ele>
        <time>2019-11-14T07:47:57.001Z</time>
      </trkpt>
      <trkpt lat="49.33097" lon="-0.38949">
        <ele>6.855</ele>
        <time>2019-11-14T07:48:30.001Z</time>
      </trkpt>
      <trkpt lat="49.33049" lon="-0.38736">
        <ele>4.848</ele>
        <time>2019-11-14T07:49:03.001Z</time>
      </trkpt>
      <trkpt lat="49.33001" lon="-0.38525">
        <ele>3.487</ele>
        <time>2019-11-14T07:49:36.001Z</time>
      </trkpt>
      <trkpt lat="49.32964" lon="-0.38336">
        <ele>8.649</ele>
        <time>2019-11-14T07:50:09.001Z</time>
      </trkpt>
      <trkpt lat="49.32909" lon="-0.38133">
        <ele>8.089</ele>
        <time>2019-11-14T07:50:42.001Z</time>
      </trkpt>
      <trkpt lat="49.32855" lon="-0.37957">
        <ele>8.94</ele>
        <time>2019-11-14T07:51:12.001Z</time>
      </trkpt>
      <trkpt lat="49.32801" lon="-0.37756">
        <ele>6.92</ele>
        <time>2019-11-14T07:51:45.001Z</time>
      </trkpt>
      <trkpt lat="49.32736" lon="-0.3758">
        <ele>5.951</ele>
        <time>2019-11-14T07:52:18.001Z</time>
      </trkpt>
      <trkpt lat="49.32721" lon="-0.37583">
        <ele>5.259</ele>
        <time>2019-11-14T07:52:54.001Z</time>
      </trkpt>
      <trkpt lat="49.32686" lon="-0.37553">
        <ele>5.585</ele>
        <time>2019-11-14T07:53:33.001Z</time>
      </trkpt>
      <trkpt lat="49.32593" lon="-0.37386">
        <ele>6.227</ele>
        <time>2019-11-14T07:54:06.001Z</time>
      </trkpt>
      <trkpt lat="49.3256" lon="-0.37165">
        <ele>5.618</ele>
        <time>2019-11-14T07:54:36.001Z</time>
      </trkpt>
      <trkpt lat="49.32523" lon="-0.3699">
        <ele>9.854</ele>
        <time>2019-11-14T07:55:09.001Z</time>
      </trkpt>
      <trkpt lat="49.3248" lon="-0.36816">
        <ele>10.213</ele>
        <time>2019-11-14T07:55:42.001Z</time>
      </trkpt>
      <trkpt lat="49.3244" lon="-0.3665">
        <ele>11.967</ele>
        <time>2019-11-14T07:56:15.001Z</time>
      </trkpt>
      <trkpt lat="49.32412" lon="-0.36559">
        <ele>13.076</ele>
        <time>2019-11-14T07:57:24.001Z</time>
      </trkpt>
      <trkpt lat="49.3236" lon="-0.36368">
        <ele>13.782</ele>
        <time>2019-11-14T07:57:57.001Z</time>
      </trkpt>
      <trkpt lat="49.32301" lon="-0.3616">
        <ele>10.513</ele>
        <time>2019-11-14T07:58:27.001Z</time>
      </trkpt>
      <trkpt lat="49.32194" lon="-0.35944">
        <ele>5.906</ele>
        <time>2019-11-14T07:59:00Z</time>
      </trkpt>
      <trkpt lat="49.32132" lon="-0.35793">
        <ele>5.304</ele>
        <time>2019-11-14T07:59:33.001Z</time>
      </trkpt>
      <trkpt lat="49.32074" lon="-0.35656">
        <ele>8.869</ele>
        <time>2019-11-14T08:00:06.001Z</time>
      </trkpt>
      <trkpt lat="49.32021" lon="-0.35537">
        <ele>8.734</ele>
        <time>2019-11-14T08:00:42.001Z</time>
      </trkpt>
      <trkpt lat="49.31973" lon="-0.35409">
        <ele>13.917</ele>
        <time>2019-11-14T08:01:15.001Z</time>
      </trkpt>
      <trkpt lat="49.31939" lon="-0.35319">
        <ele>14.039</ele>
        <time>2019-11-14T08:01:45.001Z</time>
      </trkpt>
      <trkpt lat="49.31884" lon="-0.35189">
        <ele>17.318</ele>
        <time>2019-11-14T08:02:18.001Z</time>
      </trkpt>
      <trkpt lat="49.31815" lon="-0.35053">
        <ele>11.834</ele>
        <time>2019-11-14T08:02:51.001Z</time>
      </trkpt>
      <trkpt lat="49.31732" lon="-0.35067">
        <ele>10.677</ele>
        <time>2019-11-14T08:03:24.001Z</time>
      </trkpt>
      <trkpt lat="49.31656" lon="-0.35089">
        <ele>14.647</ele>
        <time>2019-11-14T08:03:57.001Z</time>
      </trkpt>
      <trkpt lat="49.31679" lon="-0.34912">
        <ele>14.871</ele>
        <time>2019-11-14T08:04:27.001Z</time>
      </trkpt>
      <trkpt lat="49.31607" lon="-0.34748">
        <ele>10.658</ele>
        <time>2019-11-14T08:05:00Z</time>
      </trkpt>
      <trkpt lat="49.31534" lon="-0.34583">
        <ele>11.123</ele>
        <time>2019-11-14T08:05:33.001Z</time>
      </trkpt>
      <trkpt lat="49.31454" lon="-0.34406">
        <ele>10.281</ele>
        <time>2019-11-14T08:06:06.001Z</time>
      </trkpt>
      <trkpt lat="49.31379" lon="-0.34212">
        <ele>11.615</ele>
        <time>2019-11-14T08:06:39.001Z</time>
      </trkpt>
      <trkpt lat="49.31305" lon="-0.34028">
        <ele>12.511</ele>
        <time>2019-11-14T08:07:12.001Z</time>
      </trkpt>
      <trkpt lat="49.31252" lon="-0.33895">
        <ele>11.154</ele>
        <time>2019-11-14T08:07:42.001Z</time>
      </trkpt>
      <trkpt lat="49.31194" lon="-0.33757">
        <ele>11.657</ele>
        <time>2019-11-14T08:08:15.001Z</time>
      </trkpt>
      <trkpt lat="49.31137" lon="-0.33615">
        <ele>10.961</ele>
        <time>2019-11-14T08:08:48.001Z</time>
      </trkpt>
      <trkpt lat="49.31076" lon="-0.33467">
        <ele>10.714</ele>
        <time>2019-11-14T08:09:21.001Z</time>
      </trkpt>
      <trkpt lat="49.31015" lon="-0.33323">
        <ele>10.718</ele>
        <time>2019-11-14T08:09:54.001Z</time>
      </trkpt>
      <trkpt lat="49.30946" lon="-0.33167">
        <ele>12.277</ele>
        <time>2019-11-14T08:10:27.001Z</time>
      </trkpt>
      <trkpt lat="49.3088" lon="-0.32999">
        <ele>9.293</ele>
        <time>2019-11-14T08:10:57.001Z</time>
      </trkpt>
      <trkpt lat="49.30795" lon="-0.32829">
        <ele>10.954</ele>
        <time>2019-11-14T08:11:30.001Z</time>
      </trkpt>
      <trkpt lat="49.30712" lon="-0.32665">
        <ele>10.99</ele>
        <time>2019-11-14T08:12:03.001Z</time>
      </trkpt>
      <trkpt lat="49.30627" lon="-0.32497">
        <ele>7.738</ele>
        <time>2019-11-14T08:12:36.001Z</time>
      </trkpt>
      <trkpt lat="49.30598" lon="-0.32353">
        <ele>7.939</ele>
        <time>2019-11-14T08:13:09.001Z</time>
      </trkpt>
      <trkpt lat="49.30612" lon="-0.32198">
        <ele>8.597</ele>
        <time>2019-11-14T08:13:42.001Z</time>
      </trkpt>
      <trkpt lat="49.3055" lon="-0.32072">
        <ele>10.555</ele>
        <time>2019-11-14T08:14:12.001Z</time>
      </trkpt>
      <trkpt lat="49.30494" lon="-0.31921">
        <ele>10.234</ele>
        <time>2019-11-14T08:14:45.001Z</time>
      </trkpt>
      <trkpt lat="49.30409" lon="-0.31788">
        <ele>11.349</ele>
        <time>2019-11-14T08:15:18.001Z</time>
      </trkpt>
      <trkpt lat="49.30336" lon="-0.3163">
        <ele>11.378</ele>
        <time>2019-11-14T08:15:51.001Z</time>
      </trkpt>
      <trkpt lat="49.30271" lon="-0.31446">
        <ele>11.274</ele>
        <time>2019-11-14T08:16:24.001Z</time>
      </trkpt>
      <trkpt lat="49.30196" lon="-0.31271">
        <ele>10.804</ele>
        <time>2019-11-14T08:16:57.001Z</time>
      </trkpt>
      <trkpt lat="49.30139" lon="-0.31117">
        <ele>11.825</ele>
        <time>2019-11-14T08:17:27.001Z</time>
      </trkpt>
      <trkpt lat="49.30073" lon="-0.30954">
        <ele>7.735</ele>
        <time>2019-11-14T08:18:00Z</time>
      </trkpt>
      <trkpt lat="49.30006" lon="-0.30784">
        <ele>8.411</ele>
        <time>2019-11-14T08:18:33.001Z</time>
      </trkpt>
      <trkpt lat="49.29943" lon="-0.30605">
        <ele>6.763</ele>
        <time>2019-11-14T08:19:06.001Z</time>
      </trkpt>
      <trkpt lat="49.29885" lon="-0.30421">
        <ele>5.732</ele>
        <time>2019-11-14T08:19:39.001Z</time>
      </trkpt>
      <trkpt lat="49.29833" lon="-0.30253">
        <ele>5.883</ele>
        <time>2019-11-14T08:20:12.001Z</time>
      </trkpt>
      <trkpt lat="49.29797" lon="-0.30097">
        <ele>6.849</ele>
        <time>2019-11-14T08:20:42.001Z</time>
      </trkpt>
      <trkpt lat="49.29748" lon="-0.29915">
        <ele>4.352</ele>
        <time>2019-11-14T08:21:15.001Z</time>
      </trkpt>
      <trkpt lat="49.29702" lon="-0.29759">
        <ele>6.406</ele>
        <time>2019-11-14T08:21:48.001Z</time>
      </trkpt>
      <trkpt lat="49.29652" lon="-0.2959">
        <ele>4.773</ele>
        <time>2019-11-14T08:22:21.001Z</time>
      </trkpt>
      <trkpt lat="49.29604" lon="-0.2941">
        <ele>3.994</ele>
        <time>2019-11-14T08:22:54.001Z</time>
      </trkpt>
      <trkpt lat="49.29557" lon="-0.29236">
        <ele>4.834</ele>
        <time>2019-11-14T08:23:27.001Z</time>
      </trkpt>
      <trkpt lat="49.29501" lon="-0.29074">
        <ele>5.44</ele>
        <time>2019-11-14T08:23:57.001Z</time>
      </trkpt>
      <trkpt lat="49.2947" lon="-0.28913">
        <ele>5.118</ele>
        <time>2019-11-14T08:24:30.001Z</time>
      </trkpt>
      <trkpt lat="49.29448" lon="-0.28779">
        <ele>6.666</ele>
        <time>2019-11-14T08:25:03.001Z</time>
      </trkpt>
      <trkpt lat="49.29415" lon="-0.28619">
        <ele>5.307</ele>
        <time>2019-11-14T08:25:36.001Z</time>
      </trkpt>
      <trkpt lat="49.29368" lon="-0.2842">
        <ele>5.148</ele>
        <time>2019-11-14T08:26:09.001Z</time>
      </trkpt>
      <trkpt lat="49.29328" lon="-0.28235">
        <ele>7.616</ele>
        <time>2019-11-14T08:26:42.001Z</time>
      </trkpt>
      <trkpt lat="49.29295" lon="-0.28054">
        <ele>8.89</ele>
        <time>2019-11-14T08:27:12.001Z</time>
      </trkpt>
      <trkpt lat="49.29273" lon="-0.27849">
        <ele>8.03</ele>
        <time>2019-11-14T08:27:45.001Z</time>
      </trkpt>
      <trkpt lat="49.29251" lon="-0.2765">
        <ele>7.682</ele>
        <time>2019-11-14T08:28:18.001Z</time>
      </trkpt>
      <trkpt lat="49.29223" lon="-0.27459">
        <ele>7.574</ele>
        <time>2019-11-14T08:28:51.001Z</time>
      </trkpt>
      <trkpt lat="49.29183" lon="-0.27271">
        <ele>9.176</ele>
        <time>2019-11-14T08:29:24.001Z</time>
      </trkpt>
      <trkpt lat="49.29163" lon="-0.27062">
        <ele>7.189</ele>
        <time>2019-11-14T08:29:57.001Z</time>
      </trkpt>
      <trkpt lat="49.29149" lon="-0.26863">
        <ele>5.727</ele>
        <time>2019-11-14T08:30:27.001Z</time>
      </trkpt>
      <trkpt lat="49.29127" lon="-0.26651">
        <ele>5.849</ele>
        <time>2019-11-14T08:31:00Z</time>
      </trkpt>
      <trkpt lat="49.29062" lon="-0.26466">
        <ele>7.206</ele>
        <time>2019-11-14T08:31:33.001Z</time>
      </trkpt>
      <trkpt lat="49.29018" lon="-0.26248">
        <ele>10.106</ele>
        <time>2019-11-14T08:32:06.001Z</time>
      </trkpt>
      <trkpt lat="49.28997" lon="-0.26039">
        <ele>6.817</ele>
        <time>2019-11-14T08:32:39.001Z</time>
      </trkpt>
      <trkpt lat="49.28948" lon="-0.25857">
        <ele>8.411</ele>
        <time>2019-11-14T08:33:12.001Z</time>
      </trkpt>
      <trkpt lat="49.28907" lon="-0.25693">
        <ele>10.627</ele>
        <time>2019-11-14T08:33:42.001Z</time>
      </trkpt>
      <trkpt lat="49.28876" lon="-0.25512">
        <ele>11.413</ele>
        <time>2019-11-14T08:34:15.001Z</time>
      </trkpt>
      <trkpt lat="49.28871" lon="-0.25331">
        <ele>4.386</ele>
        <time>2019-11-14T08:34:48.001Z</time>
      </trkpt>
      <trkpt lat="49.28837" lon="-0.25157">
        <ele>6.468</ele>
        <time>2019-11-14T08:35:21.001Z</time>
      </trkpt>
      <trkpt lat="49.28758" lon="-0.25033">
        <ele>8.401</ele>
        <time>2019-11-14T08:35:54.001Z</time>
      </trkpt>
      <trkpt lat="49.28669" lon="-0.24941">
        <ele>11.278</ele>
        <time>2019-11-14T08:36:27.001Z</time>
      </trkpt>
      <trkpt lat="49.28555" lon="-0.24994">
        <ele>8.55</ele>
        <time>2019-11-14T08:36:57.001Z</time>
      </trkpt>
      <trkpt lat="49.28441" lon="-0.25023">
        <ele>7.529</ele>
        <time>2019-11-14T08:37:30.001Z</time>
      </trkpt>
      <trkpt lat="49.28328" lon="-0.25054">
        <ele>9.424</ele>
        <time>2019-11-14T08:38:03.001Z</time>
      </trkpt>
      <trkpt lat="49.28253" lon="-0.24967">
        <ele>8.954</ele>
        <time>2019-11-14T08:38:36.001Z</time>
      </trkpt>
      <trkpt lat="49.28219" lon="-0.2497">
        <ele>7.083</ele>
        <time>2019-11-14T08:39:54.001Z</time>
      </trkpt>
      <trkpt lat="49.28118" lon="-0.25029">
        <ele>7.693</ele>
        <time>2019-11-14T08:40:27.001Z</time>
      </trkpt>
      <trkpt lat="49.28015" lon="-0.25073">
        <ele>11.396</ele>
        <time>2019-11-14T08:40:57.001Z</time>
      </trkpt>
      <trkpt lat="49.27922" lon="-0.2502">
        <ele>7.516</ele>
        <time>2019-11-14T08:41:30.001Z</time>
      </trkpt>
      <trkpt lat="49.27841" lon="-0.25014">
        <ele>5.808</ele>
        <time>2019-11-14T08:42:03.001Z</time>
      </trkpt>
      <trkpt lat="49.27781" lon="-0.25041">
        <ele>7.539</ele>
        <time>2019-11-14T08:45:01.001Z</time>
      </trkpt>
      <trkpt lat="49.2768" lon="-0.25065">
        <ele>6.844</ele>
        <time>2019-11-14T08:45:34.001Z</time>
      </trkpt>
      <trkpt lat="49.27571" lon="-0.25097">
        <ele>3.866</ele>
        <time>2019-11-14T08:46:07.001Z</time>
      </trkpt>
      <trkpt lat="49.27479" lon="-0.25124">
        <ele>6.635</ele>
        <time>2019-11-14T08:46:37.001Z</time>
      </trkpt>
      <trkpt lat="49.27375" lon="-0.25163">
        <ele>8.765</ele>
        <time>2019-11-14T08:47:10.001Z</time>
      </trkpt>
      <trkpt lat="49.2727" lon="-0.25194">
        <ele>5.458</ele>
        <time>2019-11-14T08:47:43.001Z</time>
      </trkpt>
      <trkpt lat="49.27169" lon="-0.25219">
        <ele>9.734</ele>
        <time>2019-11-14T08:48:16Z</time>
      </trkpt>
      <trkpt lat="49.27066" lon="-0.25217">
        <ele>9.534</ele>
        <time>2019-11-14T08:48:49.001Z</time>
      </trkpt>
      <trkpt lat="49.26965" lon="-0.25244">
        <ele>6.819</ele>
        <time>2019-11-14T08:49:22.001Z</time>
      </trkpt>
      <trkpt lat="49.26855" lon="-0.25274">
        <ele>4.378</ele>
        <time>2019-11-14T08:49:52.001Z</time>
      </trkpt>
      <trkpt lat="49.26733" lon="-0.2531">
        <ele>4.281</ele>
        <time>2019-11-14T08:50:25.001Z</time>
      </trkpt>
      <trkpt lat="49.26611" lon="-0.25342">
        <ele>6.052</ele>
        <time>2019-11-14T08:50:58.001Z</time>
      </trkpt>
      <trkpt lat="49.26492" lon="-0.25377">
        <ele>5.247</ele>
        <time>2019-11-14T08:51:31.001Z</time>
      </trkpt>
      <trkpt lat="49.26382" lon="-0.25418">
        <ele>5.74</ele>
        <time>2019-11-14T08:52:04.001Z</time>
      </trkpt>
      <trkpt lat="49.2628" lon="-0.25471">
        <ele>6.359</ele>
        <time>2019-11-14T08:52:37.001Z</time>
      </trkpt>
      <trkpt lat="49.26191" lon="-0.25527">
        <ele>4.996</ele>
        <time>2019-11-14T08:53:07.001Z</time>
      </trkpt>
      <trkpt lat="49.26094" lon="-0.256">
        <ele>4.929</ele>
        <time>2019-11-14T08:53:40.001Z</time>
      </trkpt>
      <trkpt lat="49.25989" lon="-0.2569">
        <ele>4.122</ele>
        <time>2019-11-14T08:54:13.001Z</time>
      </trkpt>
      <trkpt lat="49.25891" lon="-0.25789">
        <ele>2.617</ele>
        <time>2019-11-14T08:54:46.001Z</time>
      </trkpt>
      <trkpt lat="49.25805" lon="-0.25908">
        <ele>4.084</ele>
        <time>2019-11-14T08:55:19.001Z</time>
      </trkpt>
      <trkpt lat="49.25741" lon="-0.26061">
        <ele>6.087</ele>
        <time>2019-11-14T08:55:52.001Z</time>
      </trkpt>
      <trkpt lat="49.25689" lon="-0.26211">
        <ele>4.44</ele>
        <time>2019-11-14T08:56:22.001Z</time>
      </trkpt>
      <trkpt lat="49.25622" lon="-0.2637">
        <ele>4.125</ele>
        <time>2019-11-14T08:56:55.001Z</time>
      </trkpt>
      <trkpt lat="49.25541" lon="-0.26505">
        <ele>4.008</ele>
        <time>2019-11-14T08:57:28.001Z</time>
      </trkpt>
      <trkpt lat="49.25451" lon="-0.26613">
        <ele>4.286</ele>
        <time>2019-11-14T08:58:01.001Z</time>
      </trkpt>
      <trkpt lat="49.25348" lon="-0.26703">
        <ele>5.646</ele>
        <time>2019-11-14T08:58:34.001Z</time>
      </trkpt>
      <trkpt lat="49.25242" lon="-0.26783">
        <ele>4.12</ele>
        <time>2019-11-14T08:59:07.001Z</time>
      </trkpt>
      <trkpt lat="49.25148" lon="-0.26854">
        <ele>4.232</ele>
        <time>2019-11-14T08:59:37.001Z</time>
      </trkpt>
      <trkpt lat="49.25042" lon="-0.26936">
        <ele>4.2</ele>
        <time>2019-11-14T09:00:10.001Z</time>
      </trkpt>
      <trkpt lat="49.24938" lon="-0.27016">
        <ele>5.059</ele>
        <time>2019-11-14T09:00:43.001Z</time>
      </trkpt>
      <trkpt lat="49.24835" lon="-0.27096">
        <ele>4.824</ele>
        <time>2019-11-14T09:01:16Z</time>
      </trkpt>
      <trkpt lat="49.24726" lon="-0.27177">
        <ele>4.526</ele>
        <time>2019-11-14T09:01:49.001Z</time>
      </trkpt>
      <trkpt lat="49.24615" lon="-0.27247">
        <ele>4.854</ele>
        <time>2019-11-14T09:02:22.001Z</time>
      </trkpt>
      <trkpt lat="49.24527" lon="-0.27314">
        <ele>4.647</ele>
        <time>2019-11-14T09:02:52.001Z</time>
      </trkpt>
      <trkpt lat="49.24429" lon="-0.27388">
        <ele>4.726</ele>
        <time>2019-11-14T09:03:25.001Z</time>
      </trkpt>
      <trkpt lat="49.24326" lon="-0.27449">
        <ele>5.93</ele>
        <time>2019-11-14T09:03:58.001Z</time>
      </trkpt>
      <trkpt lat="49.24259" lon="-0.27477">
        <ele>7.69</ele>
        <time>2019-11-14T09:17:22.001Z</time>
      </trkpt>
      <trkpt lat="49.24236" lon="-0.27412">
        <ele>7.94</ele>
        <time>2019-11-14T09:17:58.001Z</time>
      </trkpt>
      <trkpt lat="49.24186" lon="-0.273">
        <ele>7.752</ele>
        <time>2019-11-14T09:18:31.001Z</time>
      </trkpt>
      <trkpt lat="49.24134" lon="-0.2713">
        <ele>6.306</ele>
        <time>2019-11-14T09:19:01.001Z</time>
      </trkpt>
      <trkpt lat="49.24088" lon="-0.26947">
        <ele>3.859</ele>
        <time>2019-11-14T09:19:34.001Z</time>
      </trkpt>
      <trkpt lat="49.24058" lon="-0.26809">
        <ele>4.844</ele>
        <time>2019-11-14T09:20:07.001Z</time>
      </trkpt>
      <trkpt lat="49.24034" lon="-0.26696">
        <ele>5.424</ele>
        <time>2019-11-14T09:20:40.001Z</time>
      </trkpt>
      <trkpt lat="49.23993" lon="-0.26525">
        <ele>10.257</ele>
        <time>2019-11-14T09:21:13.001Z</time>
      </trkpt>
      <trkpt lat="49.23918" lon="-0.26388">
        <ele>10.102</ele>
        <time>2019-11-14T09:21:46.001Z</time>
      </trkpt>
      <trkpt lat="49.23869" lon="-0.26403">
        <ele>7.327</ele>
        <time>2019-11-14T09:22:16Z</time>
      </trkpt>
      <trkpt lat="49.23886" lon="-0.26353">
        <ele>8.119</ele>
        <time>2019-11-14T09:24:52.001Z</time>
      </trkpt>
      <trkpt lat="49.2393" lon="-0.26249">
        <ele>9.256</ele>
        <time>2019-11-14T09:25:25.001Z</time>
      </trkpt>
      <trkpt lat="49.23913" lon="-0.26125">
        <ele>10.741</ele>
        <time>2019-11-14T09:25:58.001Z</time>
      </trkpt>
      <trkpt lat="49.23907" lon="-0.26025">
        <ele>14.532</ele>
        <time>2019-11-14T09:26:31.001Z</time>
      </trkpt>
      <trkpt lat="49.23912" lon="-0.25923">
        <ele>19.95</ele>
        <time>2019-11-14T09:27:04.001Z</time>
      </trkpt>
      <trkpt lat="49.23921" lon="-0.25828">
        <ele>24.326</ele>
        <time>2019-11-14T09:27:34.001Z</time>
      </trkpt>
      <trkpt lat="49.23947" lon="-0.25694">
        <ele>28.028</ele>
        <time>2019-11-14T09:28:07.001Z</time>
      </trkpt>
      <trkpt lat="49.24004" lon="-0.25546">
        <ele>25.803</ele>
        <time>2019-11-14T09:28:40.001Z</time>
      </trkpt>
      <trkpt lat="49.24131" lon="-0.25405">
        <ele>24.98</ele>
        <time>2019-11-14T09:29:13.001Z</time>
      </trkpt>
      <trkpt lat="49.243" lon="-0.25288">
        <ele>22.897</ele>
        <time>2019-11-14T09:29:46.001Z</time>
      </trkpt>
      <trkpt lat="49.24427" lon="-0.25201">
        <ele>24.238</ele>
        <time>2019-11-14T09:30:16Z</time>
      </trkpt>
      <trkpt lat="49.24564" lon="-0.25088">
        <ele>28.886</ele>
        <time>2019-11-14T09:30:49.001Z</time>
      </trkpt>
      <trkpt lat="49.24673" lon="-0.24925">
        <ele>30.775</ele>
        <time>2019-11-14T09:31:22.001Z</time>
      </trkpt>
      <trkpt lat="49.24793" lon="-0.24742">
        <ele>30.115</ele>
        <time>2019-11-14T09:31:55.001Z</time>
      </trkpt>
      <trkpt lat="49.24931" lon="-0.24545">
        <ele>25.4</ele>
        <time>2019-11-14T09:32:28.001Z</time>
      </trkpt>
      <trkpt lat="49.25106" lon="-0.24376">
        <ele>21.307</ele>
        <time>2019-11-14T09:33:01.001Z</time>
      </trkpt>
      <trkpt lat="49.25238" lon="-0.24286">
        <ele>22.183</ele>
        <time>2019-11-14T09:33:31.001Z</time>
      </trkpt>
      <trkpt lat="49.25386" lon="-0.24221">
        <ele>24.332</ele>
        <time>2019-11-14T09:34:04.001Z</time>
      </trkpt>
      <trkpt lat="49.25586" lon="-0.24042">
        <ele>21.514</ele>
        <time>2019-11-14T09:34:37.001Z</time>
      </trkpt>
      <trkpt lat="49.25781" lon="-0.23837">
        <ele>16.438</ele>
        <time>2019-11-14T09:35:10.001Z</time>
      </trkpt>
      <trkpt lat="49.26023" lon="-0.23632">
        <ele>7.567</ele>
        <time>2019-11-14T09:35:43.001Z</time>
      </trkpt>
      <trkpt lat="49.26183" lon="-0.23389">
        <ele>8.297</ele>
        <time>2019-11-14T09:36:16Z</time>
      </trkpt>
      <trkpt lat="49.26288" lon="-0.23151">
        <ele>9.795</ele>
        <time>2019-11-14T09:36:46.001Z</time>
      </trkpt>
      <trkpt lat="49.26368" lon="-0.22936">
        <ele>12.297</ele>
        <time>2019-11-14T09:37:19.001Z</time>
      </trkpt>
      <trkpt lat="49.26444" lon="-0.22705">
        <ele>13.968</ele>
        <time>2019-11-14T09:37:52.001Z</time>
      </trkpt>
      <trkpt lat="49.26511" lon="-0.22546">
        <ele>7.564</ele>
        <time>2019-11-14T09:38:25.001Z</time>
      </trkpt>
      <trkpt lat="49.26551" lon="-0.22347">
        <ele>3.945</ele>
        <time>2019-11-14T09:38:58.001Z</time>
      </trkpt>
      <trkpt lat="49.26654" lon="-0.22157">
        <ele>7.782</ele>
        <time>2019-11-14T09:39:31.001Z</time>
      </trkpt>
      <trkpt lat="49.26795" lon="-0.22074">
        <ele>10.587</ele>
        <time>2019-11-14T09:40:01.001Z</time>
      </trkpt>
      <trkpt lat="49.26967" lon="-0.22018">
        <ele>15.952</ele>
        <time>2019-11-14T09:40:34.001Z</time>
      </trkpt>
      <trkpt lat="49.2712" lon="-0.21869">
        <ele>5.845</ele>
        <time>2019-11-14T09:41:07.001Z</time>
      </trkpt>
      <trkpt lat="49.27247" lon="-0.21688">
        <ele>8.252</ele>
        <time>2019-11-14T09:41:40.001Z</time>
      </trkpt>
      <trkpt lat="49.27363" lon="-0.21515">
        <ele>7.405</ele>
        <time>2019-11-14T09:42:13.001Z</time>
      </trkpt>
      <trkpt lat="49.27444" lon="-0.21309">
        <ele>9.866</ele>
        <time>2019-11-14T09:42:46.001Z</time>
      </trkpt>
      <trkpt lat="49.27507" lon="-0.21099">
        <ele>6.782</ele>
        <time>2019-11-14T09:43:16Z</time>
      </trkpt>
      <trkpt lat="49.27589" lon="-0.20873">
        <ele>5.766</ele>
        <time>2019-11-14T09:43:49.001Z</time>
      </trkpt>
      <trkpt lat="49.27696" lon="-0.20676">
        <ele>6.407</ele>
        <time>2019-11-14T09:44:22.001Z</time>
      </trkpt>
      <trkpt lat="49.27829" lon="-0.20485">
        <ele>4.618</ele>
        <time>2019-11-14T09:44:55.001Z</time>
      </trkpt>
      <trkpt lat="49.2791" lon="-0.20271">
        <ele>8.177</ele>
        <time>2019-11-14T09:45:28.001Z</time>
      </trkpt>
      <trkpt lat="49.27995" lon="-0.20052">
        <ele>6.995</ele>
        <time>2019-11-14T09:46:01.001Z</time>
      </trkpt>
      <trkpt lat="49.28063" lon="-0.19845">
        <ele>8.956</ele>
        <time>2019-11-14T09:46:31.001Z</time>
      </trkpt>
      <trkpt lat="49.28128" lon="-0.19613">
        <ele>8.372</ele>
        <time>2019-11-14T09:47:04.001Z</time>
      </trkpt>
      <trkpt lat="49.28204" lon="-0.19396">
        <ele>9.053</ele>
        <time>2019-11-14T09:47:37.001Z</time>
      </trkpt>
      <trkpt lat="49.28286" lon="-0.19169">
        <ele>7.268</ele>
        <time>2019-11-14T09:48:10.001Z</time>
      </trkpt>
      <trkpt lat="49.28337" lon="-0.18932">
        <ele>6.937</ele>
        <time>2019-11-14T09:48:43.001Z</time>
      </trkpt>
      <trkpt lat="49.28394" lon="-0.18714">
        <ele>11.046</ele>
        <time>2019-11-14T09:49:16Z</time>
      </trkpt>
      <trkpt lat="49.28458" lon="-0.18511">
        <ele>11.559</ele>
        <time>2019-11-14T09:49:46.001Z</time>
      </trkpt>
      <trkpt lat="49.2847" lon="-0.18282">
        <ele>9.092</ele>
        <time>2019-11-14T09:50:19.001Z</time>
      </trkpt>
      <trkpt lat="49.28456" lon="-0.18057">
        <ele>10.112</ele>
        <time>2019-11-14T09:50:52.001Z</time>
      </trkpt>
      <trkpt lat="49.28467" lon="-0.17838">
        <ele>14.991</ele>
        <time>2019-11-14T09:51:25.001Z</time>
      </trkpt>
      <trkpt lat="49.28492" lon="-0.17617">
        <ele>6.664</ele>
        <time>2019-11-14T09:51:58.001Z</time>
      </trkpt>
      <trkpt lat="49.28467" lon="-0.17394">
        <ele>6.479</ele>
        <time>2019-11-14T09:52:31.001Z</time>
      </trkpt>
      <trkpt lat="49.28441" lon="-0.17187">
        <ele>6.243</ele>
        <time>2019-11-14T09:53:01.001Z</time>
      </trkpt>
      <trkpt lat="49.28428" lon="-0.16959">
        <ele>6.563</ele>
        <time>2019-11-14T09:53:34.001Z</time>
      </trkpt>
      <trkpt lat="49.28448" lon="-0.16727">
        <ele>14.303</ele>
        <time>2019-11-14T09:54:07.001Z</time>
      </trkpt>
      <trkpt lat="49.28446" lon="-0.16496">
        <ele>17.147</ele>
        <time>2019-11-14T09:54:40.001Z</time>
      </trkpt>
      <trkpt lat="49.28468" lon="-0.1625">
        <ele>16.502</ele>
        <time>2019-11-14T09:55:13.001Z</time>
      </trkpt>
      <trkpt lat="49.2846" lon="-0.15998">
        <ele>15.919</ele>
        <time>2019-11-14T09:55:46.001Z</time>
      </trkpt>
      <trkpt lat="49.28449" lon="-0.15798">
        <ele>15.205</ele>
        <time>2019-11-14T09:56:16Z</time>
      </trkpt>
      <trkpt lat="49.28441" lon="-0.15557">
        <ele>13.675</ele>
        <time>2019-11-14T09:56:49.001Z</time>
      </trkpt>
      <trkpt lat="49.28435" lon="-0.15325">
        <ele>10.848</ele>
        <time>2019-11-14T09:57:22.001Z</time>
      </trkpt>
      <trkpt lat="49.28434" lon="-0.15101">
        <ele>13.647</ele>
        <time>2019-11-14T09:57:55.001Z</time>
      </trkpt>
      <trkpt lat="49.28444" lon="-0.14869">
        <ele>10.663</ele>
        <time>2019-11-14T09:58:28.001Z</time>
      </trkpt>
      <trkpt lat="49.28458" lon="-0.14632">
        <ele>7.941</ele>
        <time>2019-11-14T09:59:01.001Z</time>
      </trkpt>
      <trkpt lat="49.28489" lon="-0.14436">
        <ele>10.151</ele>
        <time>2019-11-14T09:59:31.001Z</time>
      </trkpt>
      <trkpt lat="49.28524" lon="-0.14211">
        <ele>9.913</ele>
        <time>2019-11-14T10:00:04.001Z</time>
      </trkpt>
      <trkpt lat="49.28541" lon="-0.13979">
        <ele>9.351</ele>
        <time>2019-11-14T10:00:37.001Z</time>
      </trkpt>
      <trkpt lat="49.28568" lon="-0.13748">
        <ele>5.072</ele>
        <time>2019-11-14T10:01:10.001Z</time>
      </trkpt>
      <trkpt lat="49.28596" lon="-0.13534">
        <ele>6.005</ele>
        <time>2019-11-14T10:01:43.001Z</time>
      </trkpt>
      <trkpt lat="49.28625" lon="-0.13316">
        <ele>8.92</ele>
        <time>2019-11-14T10:02:16Z</time>
      </trkpt>
      <trkpt lat="49.28653" lon="-0.13107">
        <ele>8.295</ele>
        <time>2019-11-14T10:02:46.001Z</time>
      </trkpt>
      <trkpt lat="49.28682" lon="-0.1288">
        <ele>6.348</ele>
        <time>2019-11-14T10:03:19.001Z</time>
      </trkpt>
      <trkpt lat="49.2871" lon="-0.12663">
        <ele>6.321</ele>
        <time>2019-11-14T10:03:52.001Z</time>
      </trkpt>
      <trkpt lat="49.28738" lon="-0.12446">
        <ele>6.589</ele>
        <time>2019-11-14T10:04:25.001Z</time>
      </trkpt>
      <trkpt lat="49.28704" lon="-0.12294">
        <ele>7.846</ele>
        <time>2019-11-14T10:04:58.001Z</time>
      </trkpt>
      <trkpt lat="49.28598" lon="-0.12216">
        <ele>5.83</ele>
        <time>2019-11-14T10:05:31.001Z</time>
      </trkpt>
      <trkpt lat="49.28635" lon="-0.12026">
        <ele>9.914</ele>
        <time>2019-11-14T10:06:01.001Z</time>
      </trkpt>
      <trkpt lat="49.28676" lon="-0.11811">
        <ele>7.814</ele>
        <time>2019-11-14T10:06:34.001Z</time>
      </trkpt>
      <trkpt lat="49.28681" lon="-0.11596">
        <ele>9.353</ele>
        <time>2019-11-14T10:07:07.001Z</time>
      </trkpt>
      <trkpt lat="49.28634" lon="-0.11387">
        <ele>7.977</ele>
        <time>2019-11-14T10:07:40.001Z</time>
      </trkpt>
      <trkpt lat="49.28588" lon="-0.1123">
        <ele>12.254</ele>
        <time>2019-11-14T10:08:13.001Z</time>
      </trkpt>
      <trkpt lat="49.28542" lon="-0.11045">
        <ele>7.797</ele>
        <time>2019-11-14T10:08:46.001Z</time>
      </trkpt>
      <trkpt lat="49.28518" lon="-0.10819">
        <ele>5.677</ele>
        <time>2019-11-14T10:09:16Z</time>
      </trkpt>
      <trkpt lat="49.28516" lon="-0.1059">
        <ele>8.51</ele>
        <time>2019-11-14T10:09:49.001Z</time>
      </trkpt>
      <trkpt lat="49.28533" lon="-0.10369">
        <ele>8.662</ele>
        <time>2019-11-14T10:10:22.001Z</time>
      </trkpt>
      <trkpt lat="49.28562" lon="-0.10216">
        <ele>16.435</ele>
        <time>2019-11-14T10:11:01.001Z</time>
      </trkpt>
      <trkpt lat="49.2868" lon="-0.10079">
        <ele>14.11</ele>
        <time>2019-11-14T10:11:34.001Z</time>
      </trkpt>
      <trkpt lat="49.28738" lon="-0.10017">
        <ele>13.62</ele>
        <time>2019-11-14T10:12:10.001Z</time>
      </trkpt>
      <trkpt lat="49.28833" lon="-0.09903">
        <ele>9.116</ele>
        <time>2019-11-14T10:12:40.001Z</time>
      </trkpt>
      <trkpt lat="49.28955" lon="-0.09769">
        <ele>9.022</ele>
        <time>2019-11-14T10:13:13.001Z</time>
      </trkpt>
      <trkpt lat="49.29065" lon="-0.0964">
        <ele>11.729</ele>
        <time>2019-11-14T10:13:46.001Z</time>
      </trkpt>
      <trkpt lat="49.29138" lon="-0.09557">
        <ele>15.056</ele>
        <time>2019-11-14T10:14:25.001Z</time>
      </trkpt>
      <trkpt lat="49.29266" lon="-0.09414">
        <ele>13.224</ele>
        <time>2019-11-14T10:14:58.001Z</time>
      </trkpt>
      <trkpt lat="49.29248" lon="-0.09232">
        <ele>5.703</ele>
        <time>2019-11-14T10:15:31.001Z</time>
      </trkpt>
      <trkpt lat="49.29332" lon="-0.09137">
        <ele>11.22</ele>
        <time>2019-11-14T10:16:04.001Z</time>
      </trkpt>
      <trkpt lat="49.29455" lon="-0.09007">
        <ele>18.934</ele>
        <time>2019-11-14T10:16:37.001Z</time>
      </trkpt>
      <trkpt lat="49.29546" lon="-0.08814">
        <ele>15.583</ele>
        <time>2019-11-14T10:17:10.001Z</time>
      </trkpt>
      <trkpt lat="49.29674" lon="-0.08692">
        <ele>13.072</ele>
        <time>2019-11-14T10:17:43.001Z</time>
      </trkpt>
      <trkpt lat="49.298" lon="-0.08566">
        <ele>14.081</ele>
        <time>2019-11-14T10:18:16Z</time>
      </trkpt>
      <trkpt lat="49.29923" lon="-0.08445">
        <ele>14.069</ele>
        <time>2019-11-14T10:18:49.001Z</time>
      </trkpt>
      <trkpt lat="49.30013" lon="-0.08344">
        <ele>14.425</ele>
        <time>2019-11-14T10:19:19.001Z</time>
      </trkpt>
      <trkpt lat="49.30143" lon="-0.08219">
        <ele>12.37</ele>
        <time>2019-11-14T10:19:52.001Z</time>
      </trkpt>
      <trkpt lat="49.30228" lon="-0.0805">
        <ele>13.524</ele>
        <time>2019-11-14T10:20:25.001Z</time>
      </trkpt>
      <trkpt lat="49.3027" lon="-0.07909">
        <ele>20.236</ele>
        <time>2019-11-14T10:20:58.001Z</time>
      </trkpt>
      <trkpt lat="49.30305" lon="-0.07821">
        <ele>19.585</ele>
        <time>2019-11-14T10:24:58.001Z</time>
      </trkpt>
      <trkpt lat="49.30351" lon="-0.07684">
        <ele>23.862</ele>
        <time>2019-11-14T10:25:31.001Z</time>
      </trkpt>
      <trkpt lat="49.30398" lon="-0.07541">
        <ele>28.003</ele>
        <time>2019-11-14T10:26:01.001Z</time>
      </trkpt>
      <trkpt lat="49.30383" lon="-0.0743">
        <ele>20.03</ele>
        <time>2019-11-14T10:26:34.001Z</time>
      </trkpt>
      <trkpt lat="49.30314" lon="-0.07358">
        <ele>22.562</ele>
        <time>2019-11-14T10:27:07.001Z</time>
      </trkpt>
      <trkpt lat="49.30237" lon="-0.07287">
        <ele>27.764</ele>
        <time>2019-11-14T10:27:40.001Z</time>
      </trkpt>
      <trkpt lat="49.30179" lon="-0.07231">
        <ele>29.227</ele>
        <time>2019-11-14T10:28:13.001Z</time>
      </trkpt>
      <trkpt lat="49.30123" lon="-0.07187">
        <ele>36.486</ele>
        <time>2019-11-14T10:28:49.001Z</time>
      </trkpt>
      <trkpt lat="49.30098" lon="-0.07114">
        <ele>39.03</ele>
        <time>2019-11-14T10:29:19.001Z</time>
      </trkpt>
      <trkpt lat="49.30124" lon="-0.07035">
        <ele>40.041</ele>
        <time>2019-11-14T10:29:52.001Z</time>
      </trkpt>
      <trkpt lat="49.30181" lon="-0.0699">
        <ele>48.11</ele>
        <time>2019-11-14T10:30:34.001Z</time>
      </trkpt>
      <trkpt lat="49.30253" lon="-0.06993">
        <ele>52.35</ele>
        <time>2019-11-14T10:31:16Z</time>
      </trkpt>
      <trkpt lat="49.30321" lon="-0.06973">
        <ele>56.125</ele>
        <time>2019-11-14T10:31:49.001Z</time>
      </trkpt>
      <trkpt lat="49.30384" lon="-0.06934">
        <ele>60.195</ele>
        <time>2019-11-14T10:32:22.001Z</time>
      </trkpt>
      <trkpt lat="49.3043" lon="-0.06898">
        <ele>64.262</ele>
        <time>2019-11-14T10:32:52.001Z</time>
      </trkpt>
      <trkpt lat="49.30462" lon="-0.06837">
        <ele>69.353</ele>
        <time>2019-11-14T10:33:55.001Z</time>
      </trkpt>
      <trkpt lat="49.30421" lon="-0.06815">
        <ele>65.58</ele>
        <time>2019-11-14T10:34:49.001Z</time>
      </trkpt>
      <trkpt lat="49.30378" lon="-0.06824">
        <ele>74.602</ele>
        <time>2019-11-14T10:35:49.001Z</time>
      </trkpt>
      <trkpt lat="49.30313" lon="-0.06817">
        <ele>84.09</ele>
        <time>2019-11-14T10:36:25.001Z</time>
      </trkpt>
      <trkpt lat="49.30254" lon="-0.06776">
        <ele>91.692</ele>
        <time>2019-11-14T10:36:58.001Z</time>
      </trkpt>
      <trkpt lat="49.30218" lon="-0.06703">
        <ele>95.785</ele>
        <time>2019-11-14T10:37:28.001Z</time>
      </trkpt>
      <trkpt lat="49.30182" lon="-0.06607">
        <ele>97.588</ele>
        <time>2019-11-14T10:38:01.001Z</time>
      </trkpt>
      <trkpt lat="49.30153" lon="-0.06487">
        <ele>101.568</ele>
        <time>2019-11-14T10:38:34.001Z</time>
      </trkpt>
      <trkpt lat="49.30139" lon="-0.0638">
        <ele>104.931</ele>
        <time>2019-11-14T10:39:07.001Z</time>
      </trkpt>
      <trkpt lat="49.30138" lon="-0.06288">
        <ele>103.538</ele>
        <time>2019-11-14T10:39:40.001Z</time>
      </trkpt>
      <trkpt lat="49.30143" lon="-0.0619">
        <ele>105.184</ele>
        <time>2019-11-14T10:40:13.001Z</time>
      </trkpt>
      <trkpt lat="49.30145" lon="-0.06098">
        <ele>110.836</ele>
        <time>2019-11-14T10:40:43.001Z</time>
      </trkpt>
      <trkpt lat="49.30148" lon="-0.06">
        <ele>116.813</ele>
        <time>2019-11-14T10:41:16Z</time>
      </trkpt>
      <trkpt lat="49.30149" lon="-0.059">
        <ele>124.505</ele>
        <time>2019-11-14T10:41:49.001Z</time>
      </trkpt>
      <trkpt lat="49.30199" lon="-0.05752">
        <ele>113.631</ele>
        <time>2019-11-14T10:42:22.001Z</time>
      </trkpt>
      <trkpt lat="49.30331" lon="-0.05713">
        <ele>114.386</ele>
        <time>2019-11-14T10:42:55.001Z</time>
      </trkpt>
      <trkpt lat="49.30425" lon="-0.05756">
        <ele>110.911</ele>
        <time>2019-11-14T10:43:25.001Z</time>
      </trkpt>
      <trkpt lat="49.30536" lon="-0.05583">
        <ele>111.367</ele>
        <time>2019-11-14T10:43:58.001Z</time>
      </trkpt>
      <trkpt lat="49.30576" lon="-0.05422">
        <ele>108.845</ele>
        <time>2019-11-14T10:44:31.001Z</time>
      </trkpt>
      <trkpt lat="49.30592" lon="-0.05272">
        <ele>111.198</ele>
        <time>2019-11-14T10:45:04.001Z</time>
      </trkpt>
      <trkpt lat="49.30611" lon="-0.05081">
        <ele>116.131</ele>
        <time>2019-11-14T10:45:37.001Z</time>
      </trkpt>
      <trkpt lat="49.30628" lon="-0.04854">
        <ele>115.671</ele>
        <time>2019-11-14T10:46:10.001Z</time>
      </trkpt>
      <trkpt lat="49.30657" lon="-0.04709">
        <ele>113.754</ele>
        <time>2019-11-14T10:46:40.001Z</time>
      </trkpt>
      <trkpt lat="49.30683" lon="-0.0454">
        <ele>119.3</ele>
        <time>2019-11-14T10:47:13.001Z</time>
      </trkpt>
      <trkpt lat="49.30729" lon="-0.04376">
        <ele>122.771</ele>
        <time>2019-11-14T10:47:46.001Z</time>
      </trkpt>
      <trkpt lat="49.30762" lon="-0.04197">
        <ele>120.744</ele>
        <time>2019-11-14T10:48:19.001Z</time>
      </trkpt>
      <trkpt lat="49.30772" lon="-0.04015">
        <ele>119.507</ele>
        <time>2019-11-14T10:48:52.001Z</time>
      </trkpt>
      <trkpt lat="49.30791" lon="-0.03831">
        <ele>120.994</ele>
        <time>2019-11-14T10:49:25.001Z</time>
      </trkpt>
      <trkpt lat="49.30759" lon="-0.0368">
        <ele>122.954</ele>
        <time>2019-11-14T10:49:55.001Z</time>
      </trkpt>
      <trkpt lat="49.30739" lon="-0.03507">
        <ele>125.194</ele>
        <time>2019-11-14T10:50:28.001Z</time>
      </trkpt>
      <trkpt lat="49.30734" lon="-0.03316">
        <ele>128.291</ele>
        <time>2019-11-14T10:51:01.001Z</time>
      </trkpt>
      <trkpt lat="49.30727" lon="-0.0313">
        <ele>130.126</ele>
        <time>2019-11-14T10:51:34.001Z</time>
      </trkpt>
      <trkpt lat="49.30634" lon="-0.03044">
        <ele>131.146</ele>
        <time>2019-11-14T10:52:07.001Z</time>
      </trkpt>
      <trkpt lat="49.30638" lon="-0.02912">
        <ele>130.668</ele>
        <time>2019-11-14T10:52:40.001Z</time>
      </trkpt>
      <trkpt lat="49.30676" lon="-0.02764">
        <ele>132.709</ele>
        <time>2019-11-14T10:53:10.001Z</time>
      </trkpt>
      <trkpt lat="49.30719" lon="-0.02582">
        <ele>128.329</ele>
        <time>2019-11-14T10:53:43.001Z</time>
      </trkpt>
      <trkpt lat="49.30772" lon="-0.02367">
        <ele>127.164</ele>
        <time>2019-11-14T10:54:16Z</time>
      </trkpt>
      <trkpt lat="49.30835" lon="-0.02122">
        <ele>126.527</ele>
        <time>2019-11-14T10:54:49.001Z</time>
      </trkpt>
      <trkpt lat="49.30885" lon="-0.01792">
        <ele>123.874</ele>
        <time>2019-11-14T10:55:22.001Z</time>
      </trkpt>
      <trkpt lat="49.3117" lon="-0.01405">
        <ele>97.896</ele>
        <time>2019-11-14T10:55:55.001Z</time>
      </trkpt>
      <trkpt lat="49.31381" lon="-0.01144">
        <ele>73.282</ele>
        <time>2019-11-14T10:56:25.001Z</time>
      </trkpt>
      <trkpt lat="49.31632" lon="-0.00913">
        <ele>57.791</ele>
        <time>2019-11-14T10:56:58.001Z</time>
      </trkpt>
      <trkpt lat="49.31942" lon="-0.00647">
        <ele>31.595</ele>
        <time>2019-11-14T10:57:31.001Z</time>
      </trkpt>
      <trkpt lat="49.32134" lon="-0.00567">
        <ele>20.671</ele>
        <time>2019-11-14T10:58:04.001Z</time>
      </trkpt>
      <trkpt lat="49.32345" lon="-0.00515">
        <ele>14.694</ele>
        <time>2019-11-14T10:58:37.001Z</time>
      </trkpt>
      <trkpt lat="49.32447" lon="-0.00336">
        <ele>10</ele>
        <time>2019-11-14T10:59:10.001Z</time>
      </trkpt>
      <trkpt lat="49.32511" lon="-0.0014">
        <ele>3.046</ele>
        <time>2019-11-14T10:59:40.001Z</time>
      </trkpt>
      <trkpt lat="49.32586" lon="0.00066">
        <ele>5.703</ele>
        <time>2019-11-14T11:00:13.001Z</time>
      </trkpt>
      <trkpt lat="49.3267" lon="0.00273">
        <ele>12.354</ele>
        <time>2019-11-14T11:00:46.001Z</time>
      </trkpt>
      <trkpt lat="49.32752" lon="0.00469">
        <ele>6.607</ele>
        <time>2019-11-14T11:01:19.001Z</time>
      </trkpt>
      <trkpt lat="49.32841" lon="0.0068">
        <ele>5.824</ele>
        <time>2019-11-14T11:01:52.001Z</time>
      </trkpt>
      <trkpt lat="49.32936" lon="0.00864">
        <ele>9.847</ele>
        <time>2019-11-14T11:02:25.001Z</time>
      </trkpt>
      <trkpt lat="49.33007" lon="0.01036">
        <ele>5.753</ele>
        <time>2019-11-14T11:02:55.001Z</time>
      </trkpt>
      <trkpt lat="49.33097" lon="0.01191">
        <ele>7.362</ele>
        <time>2019-11-14T11:03:28.001Z</time>
      </trkpt>
      <trkpt lat="49.33195" lon="0.01384">
        <ele>3.06</ele>
        <time>2019-11-14T11:04:01.001Z</time>
      </trkpt>
      <trkpt lat="49.33296" lon="0.01583">
        <ele>2.753</ele>
        <time>2019-11-14T11:04:34.001Z</time>
      </trkpt>
      <trkpt lat="49.33392" lon="0.01776">
        <ele>3.76</ele>
        <time>2019-11-14T11:05:07.001Z</time>
      </trkpt>
      <trkpt lat="49.33488" lon="0.0197">
        <ele>7.576</ele>
        <time>2019-11-14T11:05:40.001Z</time>
      </trkpt>
      <trkpt lat="49.33576" lon="0.02147">
        <ele>6.198</ele>
        <time>2019-11-14T11:06:10.001Z</time>
      </trkpt>
      <trkpt lat="49.33673" lon="0.02338">
        <ele>7.449</ele>
        <time>2019-11-14T11:06:43.001Z</time>
      </trkpt>
      <trkpt lat="49.33765" lon="0.02523">
        <ele>3.513</ele>
        <time>2019-11-14T11:07:16Z</time>
      </trkpt>
      <trkpt lat="49.3383" lon="0.02716">
        <ele>1.228</ele>
        <time>2019-11-14T11:07:49.001Z</time>
      </trkpt>
      <trkpt lat="49.33895" lon="0.02928">
        <ele>7.385</ele>
        <time>2019-11-14T11:08:22.001Z</time>
      </trkpt>
      <trkpt lat="49.33942" lon="0.03045">
        <ele>19.345</ele>
        <time>2019-11-14T11:08:55.001Z</time>
      </trkpt>
      <trkpt lat="49.33986" lon="0.0312">
        <ele>21.357</ele>
        <time>2019-11-14T11:09:25.001Z</time>
      </trkpt>
      <trkpt lat="49.34031" lon="0.03194">
        <ele>23.426</ele>
        <time>2019-11-14T11:09:58.001Z</time>
      </trkpt>
      <trkpt lat="49.34076" lon="0.03271">
        <ele>23.716</ele>
        <time>2019-11-14T11:10:31.001Z</time>
      </trkpt>
      <trkpt lat="49.34118" lon="0.03342">
        <ele>32.396</ele>
        <time>2019-11-14T11:11:04.001Z</time>
      </trkpt>
      <trkpt lat="49.34163" lon="0.03414">
        <ele>39.278</ele>
        <time>2019-11-14T11:11:37.001Z</time>
      </trkpt>
      <trkpt lat="49.34205" lon="0.03485">
        <ele>40.37</ele>
        <time>2019-11-14T11:12:10.001Z</time>
      </trkpt>
      <trkpt lat="49.34262" lon="0.03584">
        <ele>40.528</ele>
        <time>2019-11-14T11:12:40.001Z</time>
      </trkpt>
      <trkpt lat="49.34347" lon="0.03728">
        <ele>41.996</ele>
        <time>2019-11-14T11:13:13.001Z</time>
      </trkpt>
      <trkpt lat="49.34412" lon="0.03931">
        <ele>37.4</ele>
        <time>2019-11-14T11:13:46.001Z</time>
      </trkpt>
      <trkpt lat="49.34482" lon="0.04188">
        <ele>36.149</ele>
        <time>2019-11-14T11:14:19.001Z</time>
      </trkpt>
      <trkpt lat="49.34676" lon="0.04536">
        <ele>22.662</ele>
        <time>2019-11-14T11:14:52.001Z</time>
      </trkpt>
      <trkpt lat="49.3484" lon="0.04974">
        <ele>4.063</ele>
        <time>2019-11-14T11:15:25.001Z</time>
      </trkpt>
      <trkpt lat="49.34901" lon="0.05136">
        <ele>3.769</ele>
        <time>2019-11-14T11:15:55.001Z</time>
      </trkpt>
      <trkpt lat="49.34977" lon="0.05348">
        <ele>5.25</ele>
        <time>2019-11-14T11:16:28.001Z</time>
      </trkpt>
      <trkpt lat="49.35058" lon="0.05574">
        <ele>3.004</ele>
        <time>2019-11-14T11:17:01.001Z</time>
      </trkpt>
      <trkpt lat="49.3514" lon="0.05787">
        <ele>6.944</ele>
        <time>2019-11-14T11:17:34.001Z</time>
      </trkpt>
      <trkpt lat="49.35211" lon="0.05996">
        <ele>7.497</ele>
        <time>2019-11-14T11:18:07.001Z</time>
      </trkpt>
      <trkpt lat="49.35287" lon="0.06204">
        <ele>3.958</ele>
        <time>2019-11-14T11:18:40.001Z</time>
      </trkpt>
      <trkpt lat="49.35363" lon="0.0639">
        <ele>4.47</ele>
        <time>2019-11-14T11:19:10.001Z</time>
      </trkpt>
      <trkpt lat="49.35432" lon="0.06588">
        <ele>4.589</ele>
        <time>2019-11-14T11:19:43.001Z</time>
      </trkpt>
      <trkpt lat="49.35508" lon="0.06802">
        <ele>10.502</ele>
        <time>2019-11-14T11:20:16Z</time>
      </trkpt>
      <trkpt lat="49.35584" lon="0.07014">
        <ele>10.89</ele>
        <time>2019-11-14T11:20:49.001Z</time>
      </trkpt>
      <trkpt lat="49.35659" lon="0.07227">
        <ele>13.615</ele>
        <time>2019-11-14T11:21:22.001Z</time>
      </trkpt>
      <trkpt lat="49.35741" lon="0.07445">
        <ele>11.015</ele>
        <time>2019-11-14T11:21:55.001Z</time>
      </trkpt>
      <trkpt lat="49.358" lon="0.07605">
        <ele>7.654</ele>
        <time>2019-11-14T11:22:25.001Z</time>
      </trkpt>
      <trkpt lat="49.35882" lon="0.07824">
        <ele>11.886</ele>
        <time>2019-11-14T11:22:58.001Z</time>
      </trkpt>
      <trkpt lat="49.35958" lon="0.08026">
        <ele>18.528</ele>
        <time>2019-11-14T11:23:31.001Z</time>
      </trkpt>
      <trkpt lat="49.35998" lon="0.08231">
        <ele>13.343</ele>
        <time>2019-11-14T11:24:04.001Z</time>
      </trkpt>
      <trkpt lat="49.36049" lon="0.08398">
        <ele>6.516</ele>
        <time>2019-11-14T11:24:37.001Z</time>
      </trkpt>
      <trkpt lat="49.36104" lon="0.08528">
        <ele>9.136</ele>
        <time>2019-11-14T11:25:10.001Z</time>
      </trkpt>
      <trkpt lat="49.36128" lon="0.08592">
        <ele>5.799</ele>
        <time>2019-11-14T11:28:37.001Z</time>
      </trkpt>
      <trkpt lat="49.36214" lon="0.08644">
        <ele>10.564</ele>
        <time>2019-11-14T11:29:10.001Z</time>
      </trkpt>
      <trkpt lat="49.36276" lon="0.08591">
        <ele>20.737</ele>
        <time>2019-11-14T11:29:43.001Z</time>
      </trkpt>
      <trkpt lat="49.36352" lon="0.08518">
        <ele>26.06</ele>
        <time>2019-11-14T11:30:16Z</time>
      </trkpt>
      <trkpt lat="49.36437" lon="0.08437">
        <ele>27.268</ele>
        <time>2019-11-14T11:30:49.001Z</time>
      </trkpt>
      <trkpt lat="49.36533" lon="0.08413">
        <ele>26.405</ele>
        <time>2019-11-14T11:31:22.001Z</time>
      </trkpt>
      <trkpt lat="49.36593" lon="0.084">
        <ele>37.265</ele>
        <time>2019-11-14T11:31:55.001Z</time>
      </trkpt>
      <trkpt lat="49.36666" lon="0.08372">
        <ele>36.826</ele>
        <time>2019-11-14T11:32:28.001Z</time>
      </trkpt>
      <trkpt lat="49.36731" lon="0.08367">
        <ele>45.805</ele>
        <time>2019-11-14T11:33:04.001Z</time>
      </trkpt>
      <trkpt lat="49.36795" lon="0.08388">
        <ele>49.576</ele>
        <time>2019-11-14T11:33:43.001Z</time>
      </trkpt>
      <trkpt lat="49.36855" lon="0.08424">
        <ele>47.571</ele>
        <time>2019-11-14T11:34:16Z</time>
      </trkpt>
      <trkpt lat="49.36929" lon="0.08451">
        <ele>54.152</ele>
        <time>2019-11-14T11:34:58.001Z</time>
      </trkpt>
      <trkpt lat="49.37032" lon="0.08495">
        <ele>54.479</ele>
        <time>2019-11-14T11:35:28.001Z</time>
      </trkpt>
      <trkpt lat="49.37119" lon="0.0856">
        <ele>59.14</ele>
        <time>2019-11-14T11:36:01.001Z</time>
      </trkpt>
      <trkpt lat="49.37226" lon="0.08651">
        <ele>53.664</ele>
        <time>2019-11-14T11:36:34.001Z</time>
      </trkpt>
      <trkpt lat="49.37323" lon="0.08723">
        <ele>57.98</ele>
        <time>2019-11-14T11:37:07.001Z</time>
      </trkpt>
      <trkpt lat="49.37422" lon="0.08798">
        <ele>59.623</ele>
        <time>2019-11-14T11:37:40.001Z</time>
      </trkpt>
      <trkpt lat="49.37523" lon="0.08919">
        <ele>61.639</ele>
        <time>2019-11-14T11:38:13.001Z</time>
      </trkpt>
      <trkpt lat="49.37568" lon="0.09014">
        <ele>66.262</ele>
        <time>2019-11-14T11:38:43.001Z</time>
      </trkpt>
      <trkpt lat="49.37602" lon="0.09106">
        <ele>68.89</ele>
        <time>2019-11-14T11:39:16Z</time>
      </trkpt>
      <trkpt lat="49.37635" lon="0.0919">
        <ele>80.984</ele>
        <time>2019-11-14T11:39:49.001Z</time>
      </trkpt>
      <trkpt lat="49.37667" lon="0.09291">
        <ele>75.006</ele>
        <time>2019-11-14T11:40:22.001Z</time>
      </trkpt>
      <trkpt lat="49.37709" lon="0.09432">
        <ele>75.87</ele>
        <time>2019-11-14T11:40:55.001Z</time>
      </trkpt>
      <trkpt lat="49.37749" lon="0.09578">
        <ele>81.968</ele>
        <time>2019-11-14T11:41:28.001Z</time>
      </trkpt>
      <trkpt lat="49.37769" lon="0.09673">
        <ele>89.278</ele>
        <time>2019-11-14T11:41:58.001Z</time>
      </trkpt>
      <trkpt lat="49.37854" lon="0.09854">
        <ele>82.969</ele>
        <time>2019-11-14T11:42:31.001Z</time>
      </trkpt>
      <trkpt lat="49.38111" lon="0.10095">
        <ele>73.038</ele>
        <time>2019-11-14T11:43:04.001Z</time>
      </trkpt>
      <trkpt lat="49.38234" lon="0.10161">
        <ele>74.286</ele>
        <time>2019-11-14T11:43:37.001Z</time>
      </trkpt>
      <trkpt lat="49.38308" lon="0.10224">
        <ele>80.276</ele>
        <time>2019-11-14T11:44:10.001Z</time>
      </trkpt>
      <trkpt lat="49.38351" lon="0.1031">
        <ele>86.627</ele>
        <time>2019-11-14T11:44:43.001Z</time>
      </trkpt>
      <trkpt lat="49.38406" lon="0.10408">
        <ele>96.875</ele>
        <time>2019-11-14T11:45:13.001Z</time>
      </trkpt>
      <trkpt lat="49.38479" lon="0.1056">
        <ele>91.198</ele>
        <time>2019-11-14T11:45:46.001Z</time>
      </trkpt>
      <trkpt lat="49.38588" lon="0.1071">
        <ele>92.375</ele>
        <time>2019-11-14T11:46:19.001Z</time>
      </trkpt>
      <trkpt lat="49.38723" lon="0.10822">
        <ele>88.95</ele>
        <time>2019-11-14T11:46:52.001Z</time>
      </trkpt>
      <trkpt lat="49.38838" lon="0.1116">
        <ele>69.206</ele>
        <time>2019-11-14T11:47:25.001Z</time>
      </trkpt>
      <trkpt lat="49.38956" lon="0.11225">
        <ele>67.619</ele>
        <time>2019-11-14T11:47:58.001Z</time>
      </trkpt>
      <trkpt lat="49.39017" lon="0.11284">
        <ele>76.152</ele>
        <time>2019-11-14T11:48:28.001Z</time>
      </trkpt>
      <trkpt lat="49.39071" lon="0.11334">
        <ele>78.987</ele>
        <time>2019-11-14T11:51:01.001Z</time>
      </trkpt>
      <trkpt lat="49.39096" lon="0.1138">
        <ele>78.683</ele>
        <time>2019-11-14T11:51:55.001Z</time>
      </trkpt>
      <trkpt lat="49.39188" lon="0.11558">
        <ele>77.88</ele>
        <time>2019-11-14T11:52:28.001Z</time>
      </trkpt>
      <trkpt lat="49.39316" lon="0.11831">
        <ele>71.526</ele>
        <time>2019-11-14T11:53:01.001Z</time>
      </trkpt>
      <trkpt lat="49.39446" lon="0.12091">
        <ele>65.465</ele>
        <time>2019-11-14T11:53:34.001Z</time>
      </trkpt>
      <trkpt lat="49.39586" lon="0.12345">
        <ele>61.867</ele>
        <time>2019-11-14T11:54:04.001Z</time>
      </trkpt>
      <trkpt lat="49.39727" lon="0.12604">
        <ele>48.36</ele>
        <time>2019-11-14T11:54:37.001Z</time>
      </trkpt>
      <trkpt lat="49.39964" lon="0.12831">
        <ele>31.126</ele>
        <time>2019-11-14T11:55:10.001Z</time>
      </trkpt>
      <trkpt lat="49.40043" lon="0.12992">
        <ele>30.954</ele>
        <time>2019-11-14T11:55:43.001Z</time>
      </trkpt>
      <trkpt lat="49.40061" lon="0.13111">
        <ele>33.919</ele>
        <time>2019-11-14T11:56:16Z</time>
      </trkpt>
      <trkpt lat="49.40059" lon="0.13205">
        <ele>49.05</ele>
        <time>2019-11-14T11:56:52.001Z</time>
      </trkpt>
      <trkpt lat="49.40054" lon="0.13293">
        <ele>55.935</ele>
        <time>2019-11-14T11:57:25.001Z</time>
      </trkpt>
      <trkpt lat="49.4006" lon="0.13404">
        <ele>56.6</ele>
        <time>2019-11-14T11:57:58.001Z</time>
      </trkpt>
      <trkpt lat="49.40107" lon="0.13572">
        <ele>62.949</ele>
        <time>2019-11-14T11:58:31.001Z</time>
      </trkpt>
      <trkpt lat="49.40221" lon="0.13912">
        <ele>55.247</ele>
        <time>2019-11-14T11:59:04.001Z</time>
      </trkpt>
      <trkpt lat="49.40187" lon="0.14261">
        <ele>40.462</ele>
        <time>2019-11-14T11:59:37.001Z</time>
      </trkpt>
      <trkpt lat="49.4015" lon="0.14448">
        <ele>38.65</ele>
        <time>2019-11-14T12:00:07.001Z</time>
      </trkpt>
      <trkpt lat="49.40202" lon="0.14658">
        <ele>36.136</ele>
        <time>2019-11-14T12:00:40.001Z</time>
      </trkpt>
      <trkpt lat="49.40189" lon="0.15004">
        <ele>27.389</ele>
        <time>2019-11-14T12:01:13.001Z</time>
      </trkpt>
      <trkpt lat="49.40136" lon="0.15278">
        <ele>19.967</ele>
        <time>2019-11-14T12:01:46.001Z</time>
      </trkpt>
      <trkpt lat="49.40164" lon="0.15647">
        <ele>14.923</ele>
        <time>2019-11-14T12:02:19.001Z</time>
      </trkpt>
      <trkpt lat="49.40201" lon="0.15842">
        <ele>19.121</ele>
        <time>2019-11-14T12:02:52.001Z</time>
      </trkpt>
      <trkpt lat="49.40278" lon="0.16091">
        <ele>18.393</ele>
        <time>2019-11-14T12:03:22.001Z</time>
      </trkpt>
      <trkpt lat="49.40373" lon="0.16312">
        <ele>19.015</ele>
        <time>2019-11-14T12:03:55.001Z</time>
      </trkpt>
      <trkpt lat="49.40456" lon="0.16562">
        <ele>18.097</ele>
        <time>2019-11-14T12:04:28.001Z</time>
      </trkpt>
      <trkpt lat="49.4055" lon="0.1686">
        <ele>13.549</ele>
        <time>2019-11-14T12:05:01.001Z</time>
      </trkpt>
      <trkpt lat="49.4061" lon="0.1716">
        <ele>6.981</ele>
        <time>2019-11-14T12:05:34.001Z</time>
      </trkpt>
      <trkpt lat="49.40645" lon="0.17371">
        <ele>4.193</ele>
        <time>2019-11-14T12:06:07.001Z</time>
      </trkpt>
      <trkpt lat="49.40686" lon="0.17481">
        <ele>11.802</ele>
        <time>2019-11-14T12:06:37.001Z</time>
      </trkpt>
      <trkpt lat="49.40724" lon="0.17565">
        <ele>16.38</ele>
        <time>2019-11-14T12:07:10.001Z</time>
      </trkpt>
      <trkpt lat="49.40774" lon="0.17669">
        <ele>25.332</ele>
        <time>2019-11-14T12:07:43.001Z</time>
      </trkpt>
      <trkpt lat="49.4083" lon="0.1778">
        <ele>23.956</ele>
        <time>2019-11-14T12:08:16Z</time>
      </trkpt>
      <trkpt lat="49.40896" lon="0.17908">
        <ele>22.293</ele>
        <time>2019-11-14T12:08:49.001Z</time>
      </trkpt>
      <trkpt lat="49.40964" lon="0.18023">
        <ele>21.743</ele>
        <time>2019-11-14T12:09:22.001Z</time>
      </trkpt>
      <trkpt lat="49.41021" lon="0.18149">
        <ele>23.668</ele>
        <time>2019-11-14T12:09:52.001Z</time>
      </trkpt>
      <trkpt lat="49.41156" lon="0.18388">
        <ele>19.307</ele>
        <time>2019-11-14T12:10:25.001Z</time>
      </trkpt>
      <trkpt lat="49.41307" lon="0.18627">
        <ele>17.613</ele>
        <time>2019-11-14T12:10:58.001Z</time>
      </trkpt>
      <trkpt lat="49.41476" lon="0.18841">
        <ele>20.12</ele>
        <time>2019-11-14T12:11:31.001Z</time>
      </trkpt>
      <trkpt lat="49.4162" lon="0.19087">
        <ele>13.682</ele>
        <time>2019-11-14T12:12:04.001Z</time>
      </trkpt>
      <trkpt lat="49.41749" lon="0.1933">
        <ele>10.095</ele>
        <time>2019-11-14T12:12:37.001Z</time>
      </trkpt>
      <trkpt lat="49.41816" lon="0.1951">
        <ele>9.565</ele>
        <time>2019-11-14T12:13:07.001Z</time>
      </trkpt>
      <trkpt lat="49.41888" lon="0.19673">
        <ele>12.992</ele>
        <time>2019-11-14T12:13:40.001Z</time>
      </trkpt>
      <trkpt lat="49.41897" lon="0.19788">
        <ele>24.954</ele>
        <time>2019-11-14T12:14:13.001Z</time>
      </trkpt>
      <trkpt lat="49.41868" lon="0.19891">
        <ele>32.871</ele>
        <time>2019-11-14T12:14:46.001Z</time>
      </trkpt>
      <trkpt lat="49.41821" lon="0.19975">
        <ele>45.41</ele>
        <time>2019-11-14T12:15:31.001Z</time>
      </trkpt>
      <trkpt lat="49.41814" lon="0.20105">
        <ele>53.061</ele>
        <time>2019-11-14T12:16:13.001Z</time>
      </trkpt>
      <trkpt lat="49.41906" lon="0.2037">
        <ele>39.044</ele>
        <time>2019-11-14T12:16:43.001Z</time>
      </trkpt>
      <trkpt lat="49.41999" lon="0.2047">
        <ele>24.825</ele>
        <time>2019-11-14T12:17:16Z</time>
      </trkpt>
      <trkpt lat="49.42119" lon="0.20677">
        <ele>23.27</ele>
        <time>2019-11-14T12:17:49.001Z</time>
      </trkpt>
      <trkpt lat="49.42278" lon="0.20954">
        <ele>16.677</ele>
        <time>2019-11-14T12:18:22.001Z</time>
      </trkpt>
      <trkpt lat="49.42415" lon="0.2127">
        <ele>16.873</ele>
        <time>2019-11-14T12:18:55.001Z</time>
      </trkpt>
      <trkpt lat="49.42487" lon="0.21671">
        <ele>6.778</ele>
        <time>2019-11-14T12:19:28.001Z</time>
      </trkpt>
      <trkpt lat="49.42504" lon="0.21929">
        <ele>1.488</ele>
        <time>2019-11-14T12:19:58.001Z</time>
      </trkpt>
      <trkpt lat="49.42515" lon="0.2219">
        <ele>8.639</ele>
        <time>2019-11-14T12:20:31.001Z</time>
      </trkpt>
      <trkpt lat="49.42526" lon="0.22456">
        <ele>11.438</ele>
        <time>2019-11-14T12:21:04.001Z</time>
      </trkpt>
      <trkpt lat="49.42523" lon="0.22707">
        <ele>20.837</ele>
        <time>2019-11-14T12:21:37.001Z</time>
      </trkpt>
      <trkpt lat="49.42449" lon="0.22908">
        <ele>5.251</ele>
        <time>2019-11-14T12:22:10.001Z</time>
      </trkpt>
      <trkpt lat="49.4236" lon="0.23091">
        <ele>9.561</ele>
        <time>2019-11-14T12:22:43.001Z</time>
      </trkpt>
      <trkpt lat="49.42274" lon="0.23248">
        <ele>11.881</ele>
        <time>2019-11-14T12:23:13.001Z</time>
      </trkpt>
      <trkpt lat="49.42173" lon="0.23397">
        <ele>11.814</ele>
        <time>2019-11-14T12:23:46.001Z</time>
      </trkpt>
      <trkpt lat="49.42082" lon="0.23291">
        <ele>6.812</ele>
        <time>2019-11-14T12:24:19.001Z</time>
      </trkpt>
      <trkpt lat="49.42014" lon="0.23242">
        <ele>5.332</ele>
        <time>2019-11-14T12:27:01.001Z</time>
      </trkpt>
      <trkpt lat="49.41945" lon="0.23234">
        <ele>14.209</ele>
        <time>2019-11-14T12:27:37.001Z</time>
      </trkpt>
      <trkpt lat="49.41884" lon="0.23205">
        <ele>18.925</ele>
        <time>2019-11-14T12:28:19.001Z</time>
      </trkpt>
      <trkpt lat="49.41879" lon="0.23192">
        <ele>20.378</ele>
        <time>2019-11-14T12:29:16Z</time>
      </trkpt>
      <trkpt lat="49.4189" lon="0.23167">
        <ele>30.64</ele>
        <time>2019-11-14T12:34:13.001Z</time>
      </trkpt>
      <trkpt lat="49.41903" lon="0.23174">
        <ele>26.531</ele>
        <time>2019-11-14T12:37:04.001Z</time>
      </trkpt>
      <trkpt lat="49.41883" lon="0.23189">
        <ele>19.038</ele>
        <time>2019-11-14T12:39:34.001Z</time>
      </trkpt>
      <trkpt lat="49.41896" lon="0.23198">
        <ele>27.264</ele>
        <time>2019-11-14T12:41:08.001Z</time>
      </trkpt>
      <trkpt lat="49.41895" lon="0.2315">
        <ele>57.991</ele>
        <time>2019-11-14T12:42:56.001Z</time>
      </trkpt>
    </trkseg>
  </trk>
</gpx>